This is the latest recevied weather packets stored in our database for station/object KB9HUO. If no packets are shown the sender has not sent any weather packets the latest 10 day(s).
| Time | Temp. | Humidity | Pressure | Rain* | Wind** | Luminosity | Snow |
|---|---|---|---|---|---|---|---|
| 1788537143 | 35° C | 60% | 1017.4 hPa | 0 mm | - | 581 W/m² | - |
| 1788536841 | 34.44° C | 60% | 1017.6 hPa | 0 mm | - | 570 W/m² | - |
| 1788536536 | 35° C | 58% | 1017.7 hPa | 0 mm | - | 559 W/m² | - |
| 1788536232 | 33.89° C | 62% | 1017.4 hPa | 0 mm | - | 550 W/m² | - |
| 1788535927 | 33.89° C | 61% | 1017.7 hPa | 0 mm | - | 537 W/m² | - |
| 1788535623 | 33.33° C | 63% | 1017.9 hPa | 0 mm | - | 521 W/m² | - |
| 1788535319 | 33.33° C | 63% | 1017.7 hPa | 0 mm | - | 459 W/m² | - |
| 1788535014 | 33.33° C | 65% | 1017.6 hPa | 0 mm | - | 136 W/m² | - |
| 1788534712 | 32.78° C | 64% | 1017.8 hPa | 0 mm | - | 86 W/m² | - |
| 1788534409 | 32.22° C | 66% | 1017.7 hPa | 0 mm | - | 197 W/m² | - |
| 1788534109 | 32.22° C | 66% | 1017.7 hPa | 0 mm | - | 274 W/m² | - |
| 1788533808 | 31.67° C | 67% | 1017.8 hPa | 0 mm | - | 296 W/m² | - |
| 1788533502 | 31.67° C | 68% | 1017.9 hPa | 0 mm | - | 215 W/m² | - |
| 1788533198 | 31.11° C | 70% | 1017.6 hPa | 0 mm | - | 69 W/m² | - |
| 1788532894 | 31.11° C | 68% | 1018 hPa | 0 mm | - | 67 W/m² | - |
| 1788532589 | 30.56° C | 69% | 1017.8 hPa | 0 mm | - | 65 W/m² | - |
| 1788532286 | 30.56° C | 70% | 1017.6 hPa | 0 mm | - | 66 W/m² | - |
| 1788531982 | 30.56° C | 72% | 1017.7 hPa | 0 mm | - | 63 W/m² | - |
| 1788531677 | 30° C | 76% | 1017.7 hPa | 0 mm | - | 62 W/m² | - |
| 1788531372 | 30° C | 76% | 1017.6 hPa | 0 mm | - | 60 W/m² | - |
| 1788531068 | 29.44° C | 76% | 1017.5 hPa | 0 mm | - | 58 W/m² | - |
| 1788530764 | 28.89° C | 78% | 1017.6 hPa | 0 mm | - | 55 W/m² | - |
| 1788530457 | 28.89° C | 79% | 1017.7 hPa | 0 mm | - | 53 W/m² | - |
| 1788530156 | 28.33° C | 81% | 1017.6 hPa | 0 mm | - | 52 W/m² | - |
| 1788529853 | 27.78° C | 84% | 1017.5 hPa | 0 mm | - | 51 W/m² | - |
* Rain latest hour (hover to see other rain measurements)
** Current wind speed in m/s (hover to see current wind gust speed)